Capitol Logistics 2298


KMIA
Miami International Airport
Miami, Florida, US
KSDF
Louisville International Airport-Standiford Field
Louisville, Kentucky, US

Activity Log

Date Flight Route Aircraft Duration
08/24/2020 CPX2298 WINCO2 WINCO CHRRI Q118 KPASA Q118 ATL VXV GREDY MAUDD6 B744 2h 14m
12/01/2019 CPX2298 WINCO2 WINCO CHRRI Q118 KPASA Q118 ATL VXV GREDY MAUDD6 B763 2h 12m

Route Details

Aircraft Information
Primary: Boeing 747-400BCF
Backup: Boeing 767-300BDSF
Date Restrictions
Between:Nov 16, 2019
Dec 31, 2019
Route Data
Distance: 794nm
Sched. Duration: 2h 16m
Avg. Duration: 2h 13m (-4m)
Times Flown: 2
Recm'd Route: WINCO2 WINCO CHRRI Q118 KPASA Q118 ATL VXV GREDY MAUDD6
Planned Altitude: 34,000ft
Origin Wx: KMIA 190053Z 03006KT 10SM FEW040 SCT250 18/09 A3021 RMK AO2 SLP229 T01830089 $
Dest. Wx: KSDF 190056Z 13003KT 10SM SCT065 SCT090 BKN250 02/M02 A3009 RMK AO2 SLP193 T00221022
Notes: SEASONAL FLIGHT | UPS SURGE OPS CONTRACT

Financial History
Total Freight: 317,281lbs
Average Load: 158,641lbs/flt
Fuel Used: 65,397lbs
Avg. Fuel Used: 32,699lbs/flt
Fuel Expense: $80,438
Avg. Fuel Expense: $40,219
Avg. Fuel Cost: $1.23/lbs
Total Gross Income: $599,661
Pilot Pay: $488
Total Expenses: $64,867
Total Revenue: $453,183
Average Revenue: $299,830.54